createdAt,value
2017-08-02T00:00:03.183Z,0
2017-08-02T00:05:02.441Z,0
2017-08-02T00:10:02.929Z,0
2017-08-02T00:15:03.228Z,0
2017-08-02T00:20:02.678Z,0
2017-08-02T00:25:03.128Z,0
2017-08-02T00:30:02.546Z,0
2017-08-02T00:35:03.017Z,0
2017-08-02T00:40:03.327Z,0
2017-08-02T00:45:02.616Z,0
2017-08-02T00:50:03.034Z,0
2017-08-02T00:55:03.312Z,0
2017-08-02T01:00:02.529Z,0
2017-08-02T01:05:02.784Z,0
2017-08-02T01:10:03.283Z,0
2017-08-02T01:15:02.547Z,0
2017-08-02T01:20:02.865Z,0
2017-08-02T01:25:03.327Z,0
2017-08-02T01:30:02.687Z,0
2017-08-02T01:35:03.095Z,0
2017-08-02T01:40:03.440Z,0
2017-08-02T01:45:02.684Z,0
2017-08-02T01:50:03.066Z,0
2017-08-02T01:55:03.434Z,0
2017-08-02T02:00:02.833Z,0
2017-08-02T02:05:03.174Z,0
2017-08-02T02:10:02.630Z,0
2017-08-02T02:15:02.887Z,0
2017-08-02T02:20:03.128Z,0
2017-08-02T02:25:02.696Z,0
2017-08-02T02:30:03.030Z,0
2017-08-02T02:35:03.323Z,0
2017-08-02T02:40:02.598Z,0
2017-08-02T02:45:02.924Z,0
2017-08-02T02:50:03.265Z,0
2017-08-02T02:55:02.573Z,0
2017-08-02T03:00:02.845Z,0
2017-08-02T03:05:03.116Z,0
2017-08-02T03:10:02.579Z,0
2017-08-02T03:15:03.003Z,0
2017-08-02T03:20:03.336Z,0
2017-08-02T03:25:02.618Z,0
2017-08-02T03:30:02.921Z,0
2017-08-02T03:35:03.412Z,0
2017-08-02T03:40:02.837Z,0
2017-08-02T03:45:03.278Z,0
2017-08-02T03:50:02.567Z,0
2017-08-02T03:55:02.985Z,0
2017-08-02T04:00:03.498Z,0
2017-08-02T04:05:02.910Z,0
2017-08-02T04:10:03.408Z,0
2017-08-02T04:15:02.743Z,0
2017-08-02T04:20:03.038Z,0
2017-08-02T04:25:02.520Z,0
2017-08-02T04:30:03.137Z,0
2017-08-02T04:35:03.361Z,0
2017-08-02T04:40:02.745Z,0
2017-08-02T04:45:03.182Z,0
2017-08-02T04:50:02.667Z,0
2017-08-02T04:55:03.037Z,0
2017-08-02T05:00:03.384Z,0
2017-08-02T05:05:02.799Z,0
2017-08-02T05:10:03.134Z,0
2017-08-02T05:15:02.561Z,0
2017-08-02T05:20:03.017Z,0
2017-08-02T05:25:03.438Z,0
2017-08-02T05:30:02.730Z,0
2017-08-02T05:35:03.055Z,0
2017-08-02T05:40:02.535Z,0
2017-08-02T05:45:03.002Z,0
2017-08-02T05:50:03.324Z,0
2017-08-02T05:55:02.546Z,0
2017-08-02T06:00:03.068Z,0
2017-08-02T06:05:02.517Z,1
2017-08-02T06:10:03.019Z,0
2017-08-02T06:15:03.355Z,2
2017-08-02T06:20:02.750Z,3
2017-08-02T06:25:03.206Z,2
2017-08-02T06:30:02.590Z,2
2017-08-02T06:35:02.909Z,0
2017-08-02T06:40:03.518Z,2
2017-08-02T06:45:02.747Z,4
2017-08-02T06:50:03.145Z,2
2017-08-02T06:55:02.576Z,3
2017-08-02T07:00:02.860Z,5
2017-08-02T07:05:03.324Z,5
2017-08-02T07:10:02.663Z,4
2017-08-02T07:15:02.955Z,3
2017-08-02T07:20:03.249Z,3
2017-08-02T07:25:02.535Z,3
2017-08-02T07:30:02.960Z,6
2017-08-02T07:35:03.254Z,3
2017-08-02T07:40:02.566Z,3
2017-08-02T07:45:03.032Z,1
2017-08-02T07:50:03.333Z,0
2017-08-02T07:55:02.736Z,3
2017-08-02T08:00:03.026Z,5
2017-08-02T08:05:02.505Z,6
2017-08-02T08:10:02.851Z,7
2017-08-02T08:15:03.127Z,0
2017-08-02T08:20:03.442Z,6
2017-08-02T08:25:02.880Z,4
2017-08-02T08:30:03.149Z,2
2017-08-02T08:35:03.438Z,3
2017-08-02T08:40:02.780Z,0
2017-08-02T08:45:03.190Z,5
2017-08-02T08:50:02.686Z,3
2017-08-02T08:55:03.005Z,3
2017-08-02T09:00:03.357Z,3
2017-08-02T09:20:02.687Z,3
2017-08-02T09:25:03.147Z,4
2017-08-02T09:30:02.615Z,5
2017-08-02T09:35:03.000Z,7
2017-08-02T10:55:02.769Z,5
2017-08-02T11:00:03.138Z,6
2017-08-02T11:05:02.461Z,2
2017-08-02T11:10:02.814Z,4
2017-08-02T11:15:03.223Z,3
2017-08-02T11:20:02.708Z,7
2017-08-02T11:25:02.978Z,3
2017-08-02T11:30:03.281Z,5
2017-08-02T11:35:02.723Z,2
2017-08-02T11:40:03.130Z,4
2017-08-02T11:45:02.563Z,5
2017-08-02T11:50:02.863Z,5
2017-08-02T11:55:03.096Z,3
2017-08-02T12:00:03.384Z,3
2017-08-02T12:05:02.694Z,3
2017-08-02T12:10:03.210Z,3
2017-08-02T12:15:02.599Z,4
2017-08-02T12:20:02.859Z,4
2017-08-02T12:25:03.365Z,4
2017-08-02T12:30:02.686Z,5
2017-08-02T12:35:03.006Z,6
2017-08-02T12:40:03.379Z,3
2017-08-02T12:45:02.796Z,3
2017-08-02T12:50:03.075Z,7
2017-08-02T12:55:02.586Z,2
2017-08-02T13:00:03.117Z,1
2017-08-02T13:05:02.599Z,3
2017-08-02T13:10:02.951Z,1
2017-08-02T13:15:03.358Z,2
2017-08-02T13:20:02.641Z,3
2017-08-02T13:25:03.190Z,3
2017-08-02T13:30:02.522Z,5
2017-08-02T13:35:02.824Z,4
2017-08-02T13:40:03.201Z,4
2017-08-02T13:45:02.633Z,6
2017-08-02T13:50:03.154Z,4
2017-08-02T13:55:02.601Z,3
2017-08-02T14:00:02.916Z,7
2017-08-02T14:05:03.248Z,3
2017-08-02T14:10:02.708Z,3
2017-08-02T14:15:03.112Z,0
2017-08-02T14:20:02.508Z,5
2017-08-02T14:25:02.988Z,4
2017-08-02T14:30:03.374Z,3
2017-08-02T14:35:02.853Z,3
2017-08-02T14:40:03.230Z,3
2017-08-02T14:45:02.701Z,2
2017-08-02T14:50:03.003Z,0
2017-08-02T14:55:03.328Z,3
2017-08-02T15:00:02.726Z,2
2017-08-02T15:05:03.031Z,3
2017-08-02T15:10:03.353Z,2
2017-08-02T15:15:02.640Z,3
2017-08-02T15:20:03.095Z,5
2017-08-02T15:25:02.476Z,5
2017-08-02T15:30:02.979Z,4
2017-08-02T15:35:03.358Z,3
2017-08-02T15:40:02.705Z,2
2017-08-02T15:45:03.153Z,2
2017-08-02T15:50:02.498Z,2
2017-08-02T15:55:02.892Z,3
2017-08-02T16:00:03.256Z,2
2017-08-02T16:05:02.560Z,3
2017-08-02T16:10:02.985Z,3
2017-08-02T16:15:03.252Z,2
2017-08-02T16:20:02.684Z,4
2017-08-02T16:25:03.171Z,7
2017-08-02T16:30:03.453Z,7
2017-08-02T16:35:02.873Z,7
2017-08-02T16:40:03.300Z,5
2017-08-02T16:45:02.590Z,5
2017-08-02T16:50:02.925Z,3
2017-08-02T16:55:03.356Z,4
2017-08-02T17:00:02.818Z,6
2017-08-02T17:05:03.484Z,5
2017-08-02T17:10:02.784Z,4
2017-08-02T17:15:03.096Z,5
2017-08-02T17:20:02.509Z,4
2017-08-02T17:25:03.015Z,7
2017-08-02T17:30:03.415Z,1
2017-08-02T17:35:02.745Z,4
2017-08-02T17:40:03.148Z,3
2017-08-02T17:45:02.653Z,1
2017-08-02T17:50:03.120Z,2
2017-08-02T17:55:03.462Z,3
2017-08-02T18:00:02.738Z,2
2017-08-02T18:05:03.217Z,3
2017-08-02T18:10:02.570Z,0
2017-08-02T18:15:03.013Z,0
2017-08-02T18:20:03.287Z,3
2017-08-02T18:25:02.711Z,2
2017-08-02T18:30:03.138Z,0
2017-08-02T18:35:03.394Z,0
2017-08-02T18:40:02.792Z,0
2017-08-02T18:45:03.169Z,0
2017-08-02T18:50:02.579Z,0
2017-08-02T18:55:03.035Z,0
2017-08-02T19:00:03.394Z,0
2017-08-02T19:05:02.727Z,0
2017-08-02T19:10:03.251Z,0
2017-08-02T19:15:02.543Z,0
2017-08-02T19:20:03.008Z,0
2017-08-02T19:25:02.487Z,0
2017-08-02T19:30:02.811Z,0
2017-08-02T19:35:03.347Z,0
2017-08-02T19:40:02.840Z,0
2017-08-02T19:45:03.279Z,0
2017-08-02T19:50:02.727Z,0
2017-08-02T19:55:03.233Z,0
2017-08-02T20:00:02.687Z,0
2017-08-02T20:05:03.168Z,0
2017-08-02T20:10:02.740Z,0
2017-08-02T20:15:03.030Z,0
2017-08-02T20:20:03.337Z,0
2017-08-02T20:25:02.602Z,0
2017-08-02T20:30:02.996Z,0
2017-08-02T20:35:03.410Z,0
2017-08-02T20:40:02.899Z,0
2017-08-02T20:45:03.238Z,0
2017-08-02T20:50:02.557Z,0
2017-08-02T20:55:03.022Z,0
2017-08-02T21:00:03.299Z,0
2017-08-02T21:05:02.567Z,0
2017-08-02T21:10:03.088Z,0
2017-08-02T21:15:03.409Z,0
2017-08-02T21:20:02.735Z,0
2017-08-02T21:25:03.201Z,0
2017-08-02T21:30:02.471Z,0
2017-08-02T21:35:02.899Z,0
2017-08-02T21:40:03.241Z,0
2017-08-02T21:45:02.506Z,0
2017-08-02T21:50:02.969Z,0
2017-08-02T21:55:03.450Z,0
2017-08-02T22:00:02.910Z,0
2017-08-02T22:05:03.202Z,0
2017-08-02T22:10:02.731Z,0
2017-08-02T22:15:03.013Z,0
2017-08-02T22:20:03.353Z,0
2017-08-02T22:25:02.642Z,0
2017-08-02T22:30:03.045Z,0
2017-08-02T22:35:03.539Z,0
2017-08-02T22:40:02.868Z,0
2017-08-02T22:45:03.204Z,0
2017-08-02T22:50:02.526Z,0
2017-08-02T22:55:02.912Z,0
2017-08-02T23:00:03.461Z,0
2017-08-02T23:05:02.705Z,0
2017-08-02T23:10:03.101Z,0
2017-08-02T23:15:03.400Z,0
2017-08-02T23:20:02.724Z,1
2017-08-02T23:25:03.052Z,0
2017-08-02T23:30:03.293Z,0
2017-08-02T23:35:02.585Z,0
2017-08-02T23:40:02.897Z,0
2017-08-02T23:45:03.214Z,2
2017-08-02T23:50:02.575Z,0
2017-08-02T23:55:02.891Z,0
